createdAt,value
2017-09-21T00:00:44.470Z,23.50
2017-09-21T00:03:13.410Z,25.67
2017-09-21T00:05:41.698Z,26.37
2017-09-21T00:08:09.835Z,27.00
2017-09-21T00:10:38.031Z,27.77
2017-09-21T00:13:06.178Z,26.05
2017-09-21T00:15:34.329Z,26.37
2017-09-21T00:18:03.262Z,27.90
2017-09-21T00:20:31.398Z,23.75
2017-09-21T00:22:59.549Z,24.70
2017-09-21T00:25:27.847Z,24.10
2017-09-21T00:27:56.764Z,24.33
2017-09-21T00:30:24.930Z,25.12
2017-09-21T00:32:53.068Z,26.30
2017-09-21T00:35:22.012Z,28.33
2017-09-21T00:37:50.185Z,28.40
2017-09-21T00:40:18.323Z,26.52
2017-09-21T00:42:47.384Z,29.37
2017-09-21T00:45:15.554Z,25.10
2017-09-21T00:47:43.696Z,27.20
2017-09-21T00:50:11.990Z,23.30
2017-09-21T00:52:40.130Z,24.15
2017-09-21T00:55:08.294Z,25.60
2017-09-21T00:57:36.441Z,22.70
2017-09-21T01:00:04.621Z,24.37
2017-09-21T01:02:32.762Z,26.48
2017-09-21T01:05:01.054Z,24.80
2017-09-21T01:07:29.232Z,24.08
2017-09-21T01:09:57.398Z,25.77
2017-09-21T01:12:25.560Z,24.00
2017-09-21T01:14:53.704Z,26.10
2017-09-21T01:17:21.849Z,26.17
2017-09-21T01:19:50.889Z,21.83
2017-09-21T01:22:19.060Z,29.83
2017-09-21T01:24:47.196Z,25.08
2017-09-21T01:27:15.341Z,26.17
2017-09-21T01:29:43.512Z,26.42
2017-09-21T01:32:11.657Z,26.48
2017-09-21T01:34:39.784Z,24.12
2017-09-21T01:37:08.821Z,21.80
2017-09-21T01:39:37.018Z,23.50
2017-09-21T01:42:05.174Z,24.45
2017-09-21T01:44:33.467Z,23.62
2017-09-21T01:47:01.608Z,23.55
2017-09-21T01:49:29.783Z,23.23
2017-09-21T01:51:57.925Z,19.23
2017-09-21T01:54:26.210Z,24.40
2017-09-21T01:56:54.349Z,22.92
2017-09-21T01:59:22.533Z,23.08
2017-09-21T02:01:51.447Z,19.35
2017-09-21T02:04:19.622Z,23.50
2017-09-21T02:06:47.760Z,21.77
2017-09-21T02:09:16.048Z,23.17
2017-09-21T02:11:44.984Z,23.70
2017-09-21T02:14:13.134Z,20.70
2017-09-21T02:16:41.296Z,22.45
2017-09-21T02:19:10.205Z,21.90
2017-09-21T02:21:38.408Z,23.90
2017-09-21T02:24:06.528Z,20.12
2017-09-21T02:26:35.457Z,20.10
2017-09-21T02:29:03.736Z,20.80
2017-09-21T02:31:31.873Z,25.73
2017-09-21T02:34:00.810Z,22.33
2017-09-21T02:36:28.945Z,26.15
2017-09-21T02:38:57.116Z,20.85
2017-09-21T02:41:25.265Z,22.40
2017-09-21T02:43:53.414Z,21.83
2017-09-21T02:46:21.609Z,24.73
2017-09-21T02:48:49.745Z,20.92
2017-09-21T02:51:17.925Z,20.40
2017-09-21T02:53:46.065Z,19.62
2017-09-21T02:56:14.204Z,20.88
2017-09-21T02:58:42.364Z,24.23
2017-09-21T03:01:10.523Z,21.17
2017-09-21T03:03:38.809Z,20.27
2017-09-21T03:06:06.958Z,21.73
2017-09-21T03:08:35.103Z,24.02
2017-09-21T03:11:04.028Z,25.95
2017-09-21T03:13:32.204Z,27.20
2017-09-21T03:16:00.389Z,24.42
2017-09-21T03:18:28.517Z,24.92
2017-09-21T03:20:56.660Z,22.33
2017-09-21T03:23:24.858Z,22.05
2017-09-21T03:25:53.023Z,24.15
2017-09-21T03:28:21.949Z,20.55
2017-09-21T03:30:50.093Z,22.45
2017-09-21T03:33:19.020Z,18.80
2017-09-21T03:35:47.161Z,22.35
2017-09-21T03:38:15.331Z,23.27
2017-09-21T03:40:44.365Z,50.30
2017-09-21T03:43:12.517Z,33.88
2017-09-21T03:45:41.917Z,44.05
2017-09-21T03:48:10.053Z,81.78
2017-09-21T03:50:38.241Z,61.03
2017-09-21T03:53:07.157Z,55.45
2017-09-21T03:55:35.289Z,43.08
2017-09-21T03:58:03.587Z,36.03
2017-09-21T04:00:32.487Z,43.33
2017-09-21T04:03:00.662Z,31.90
2017-09-21T04:05:28.808Z,29.55
2017-09-21T04:07:56.955Z,38.33
2017-09-21T04:10:25.122Z,33.35
2017-09-21T04:12:53.397Z,64.40
2017-09-21T04:15:21.549Z,34.35
2017-09-21T04:17:49.724Z,26.30
2017-09-21T04:20:17.864Z,24.52
2017-09-21T04:22:46.836Z,45.33
2017-09-21T04:25:15.023Z,38.20
2017-09-21T04:27:43.957Z,27.75
2017-09-21T04:30:12.133Z,32.22
2017-09-21T04:32:40.402Z,25.17
2017-09-21T04:35:08.576Z,23.87
2017-09-21T04:37:36.769Z,23.15
2017-09-21T04:40:04.945Z,24.87
2017-09-21T04:42:33.125Z,26.83
2017-09-21T04:45:02.241Z,27.00
2017-09-21T04:47:31.444Z,23.80
2017-09-21T04:49:59.609Z,22.42
2017-09-21T04:52:28.939Z,25.58
2017-09-21T04:54:57.984Z,21.67
2017-09-21T04:57:26.130Z,24.60
2017-09-21T04:59:54.313Z,22.42
2017-09-21T05:02:22.452Z,23.30
2017-09-21T05:04:51.500Z,20.23
2017-09-21T05:07:19.678Z,25.80
2017-09-21T05:09:47.818Z,23.58
2017-09-21T05:12:16.021Z,23.90
2017-09-21T05:14:44.761Z,22.37
2017-09-21T05:17:12.940Z,24.35
2017-09-21T05:19:41.077Z,23.33
2017-09-21T05:22:09.249Z,21.77
2017-09-21T05:24:37.408Z,23.45
2017-09-21T05:27:05.550Z,26.37
2017-09-21T05:29:33.841Z,26.77
2017-09-21T05:32:01.989Z,21.40
2017-09-21T05:34:31.376Z,24.27
2017-09-21T05:36:59.521Z,21.52
2017-09-21T05:39:27.668Z,23.38
2017-09-21T05:41:55.970Z,23.42
2017-09-21T05:44:24.118Z,23.83
2017-09-21T05:46:52.318Z,22.55
2017-09-21T05:49:20.465Z,21.40
2017-09-21T05:51:48.641Z,28.20
2017-09-21T05:54:16.822Z,23.98
2017-09-21T05:56:45.096Z,26.98
2017-09-21T05:59:14.634Z,32.33
2017-09-21T06:07:00.160Z,25.50
2017-09-21T06:09:28.330Z,24.35
2017-09-21T06:11:57.260Z,25.15
2017-09-21T06:14:25.452Z,25.15
2017-09-21T06:16:54.092Z,26.75
2017-09-21T06:19:22.264Z,28.85
2017-09-21T06:21:50.477Z,26.52
2017-09-21T06:24:18.765Z,25.80
2017-09-21T06:26:46.947Z,27.65
2017-09-21T06:29:15.099Z,28.00
2017-09-21T06:31:43.278Z,31.90
2017-09-21T06:34:11.443Z,30.10
2017-09-21T06:36:39.577Z,33.00
2017-09-21T06:39:07.767Z,28.60
2017-09-21T06:41:35.904Z,25.67
2017-09-21T06:44:05.739Z,31.90
2017-09-21T06:46:34.645Z,28.27
2017-09-21T06:49:02.809Z,29.08
2017-09-21T06:51:31.626Z,31.17
2017-09-21T06:53:59.782Z,32.95
2017-09-21T06:56:27.945Z,29.85
2017-09-21T06:58:56.096Z,27.17
2017-09-21T07:01:24.293Z,29.33
2017-09-21T07:03:52.451Z,30.05
2017-09-21T07:06:21.374Z,29.25
2017-09-21T07:08:49.523Z,30.98
2017-09-21T07:11:17.725Z,34.10
2017-09-21T07:13:45.861Z,31.02
2017-09-21T07:16:14.001Z,28.85
2017-09-21T07:18:42.289Z,28.45
2017-09-21T07:21:10.462Z,32.67
2017-09-21T07:23:38.635Z,31.77
2017-09-21T07:26:06.768Z,31.37
2017-09-21T07:28:34.949Z,29.33
2017-09-21T07:31:03.098Z,31.42
2017-09-21T07:33:31.248Z,29.00
2017-09-21T07:35:59.541Z,32.53
2017-09-21T07:38:28.439Z,29.75
2017-09-21T07:40:56.653Z,32.70
2017-09-21T07:43:24.800Z,27.23
2017-09-21T07:45:52.964Z,28.92
2017-09-21T07:48:21.144Z,31.42
2017-09-21T07:50:49.291Z,28.50
2017-09-21T07:53:18.228Z,26.27
2017-09-21T07:55:46.368Z,28.55
2017-09-21T07:58:14.657Z,27.83
2017-09-21T08:00:42.801Z,27.92
2017-09-21T08:03:11.713Z,29.80
2017-09-21T08:05:39.893Z,25.02
2017-09-21T08:08:08.030Z,27.70
2017-09-21T08:10:36.965Z,28.05
2017-09-21T08:13:05.136Z,26.02
2017-09-21T08:15:34.063Z,30.40
2017-09-21T08:18:02.200Z,23.95
2017-09-21T08:20:30.485Z,25.42
2017-09-21T08:22:58.638Z,25.65
2017-09-21T08:25:26.879Z,23.87
2017-09-21T08:27:56.752Z,27.08
2017-09-21T08:30:27.545Z,22.95
2017-09-21T08:32:57.563Z,25.02
2017-09-21T08:35:28.282Z,22.20
2017-09-21T08:38:00.692Z,26.27
2017-09-21T08:40:32.545Z,29.95
2017-09-21T08:43:04.832Z,22.27
2017-09-21T08:45:35.111Z,24.17
2017-09-21T08:48:06.745Z,23.05
2017-09-21T08:50:37.790Z,21.40
2017-09-21T08:53:09.135Z,23.17
2017-09-21T08:55:40.196Z,20.90
2017-09-21T08:58:10.807Z,20.75
2017-09-21T09:00:41.037Z,20.20
2017-09-21T09:03:13.789Z,20.62
2017-09-21T09:05:42.971Z,20.12
2017-09-21T09:08:11.196Z,19.30
2017-09-21T09:10:39.345Z,19.48
2017-09-21T09:13:07.627Z,18.73
2017-09-21T09:15:35.812Z,18.62
2017-09-21T09:18:05.201Z,19.77
2017-09-21T09:20:33.340Z,18.50
2017-09-21T09:23:01.512Z,18.65
2017-09-21T09:25:30.572Z,18.80
2017-09-21T09:27:59.481Z,20.58
2017-09-21T09:30:27.628Z,19.05
2017-09-21T09:32:55.918Z,17.20
2017-09-21T09:35:24.830Z,18.08
2017-09-21T09:37:53.024Z,16.70
2017-09-21T09:40:21.161Z,18.08
2017-09-21T09:42:49.344Z,16.20
2017-09-21T09:45:17.512Z,18.73
2017-09-21T09:47:45.809Z,16.70
2017-09-21T09:50:13.952Z,16.70
2017-09-21T09:52:42.112Z,16.00
2017-09-21T09:55:10.326Z,16.70
2017-09-21T09:57:38.489Z,14.90
2017-09-21T10:00:07.392Z,16.10
2017-09-21T10:02:35.572Z,16.60
2017-09-21T10:05:03.713Z,14.15
2017-09-21T10:07:32.781Z,14.43
2017-09-21T10:10:00.933Z,14.25
2017-09-21T10:12:29.108Z,14.77
2017-09-21T10:14:57.334Z,13.95
2017-09-21T10:17:26.245Z,12.98
2017-09-21T10:19:54.460Z,14.95
2017-09-21T10:22:22.621Z,11.95
2017-09-21T10:24:50.807Z,12.00
2017-09-21T10:27:20.261Z,12.88
2017-09-21T10:29:48.414Z,12.88
2017-09-21T10:32:16.548Z,15.25
2017-09-21T10:34:49.794Z,12.80
2017-09-21T10:37:17.941Z,12.52
2017-09-21T10:39:46.093Z,13.02
2017-09-21T10:42:14.264Z,11.95
2017-09-21T10:44:42.421Z,12.50
2017-09-21T10:47:10.600Z,12.40
2017-09-21T10:49:38.752Z,12.18
2017-09-21T10:52:07.029Z,11.77
2017-09-21T10:54:35.168Z,10.90
2017-09-21T10:57:04.096Z,10.45
2017-09-21T10:59:32.261Z,10.75
2017-09-21T11:02:00.441Z,11.02
2017-09-21T11:04:28.620Z,10.30
2017-09-21T11:06:56.775Z,7.80
2017-09-21T11:09:24.981Z,8.32
2017-09-21T11:11:53.132Z,7.45
2017-09-21T11:14:21.286Z,7.65
2017-09-21T11:16:50.248Z,6.90
2017-09-21T11:19:19.125Z,6.68
2017-09-21T11:21:47.321Z,5.65
2017-09-21T11:24:15.605Z,5.68
2017-09-21T11:26:44.512Z,6.07
2017-09-21T11:29:12.661Z,5.93
2017-09-21T11:31:40.832Z,6.15
2017-09-21T11:34:08.988Z,6.82
2017-09-21T11:36:37.190Z,6.20
2017-09-21T11:39:06.876Z,5.05
2017-09-21T11:41:35.390Z,4.78
2017-09-21T11:44:04.327Z,7.07
2017-09-21T11:46:32.511Z,6.40
2017-09-21T11:49:00.719Z,5.32
2017-09-21T11:51:28.948Z,8.00
2017-09-21T11:53:57.124Z,5.60
2017-09-21T11:56:25.270Z,4.90
2017-09-21T11:58:53.553Z,5.45
2017-09-21T12:01:23.197Z,11.07
2017-09-21T12:03:51.343Z,5.80
2017-09-21T12:06:19.556Z,7.80
2017-09-21T12:08:47.692Z,6.05
2017-09-21T12:11:15.846Z,6.75
2017-09-21T12:13:44.015Z,6.78
2017-09-21T12:16:12.152Z,5.97
2017-09-21T12:18:40.332Z,5.72
2017-09-21T12:21:08.476Z,6.00
2017-09-21T12:23:36.688Z,6.10
2017-09-21T12:26:05.586Z,6.72
2017-09-21T12:28:34.496Z,6.78
2017-09-21T12:31:02.661Z,6.53
2017-09-21T12:33:31.720Z,7.28
2017-09-21T12:36:01.265Z,5.70
2017-09-21T12:38:30.311Z,5.68
2017-09-21T12:40:59.633Z,6.60
2017-09-21T12:43:29.016Z,5.85
2017-09-21T12:45:57.238Z,5.57
2017-09-21T12:48:25.406Z,5.07
2017-09-21T12:50:54.321Z,6.35
2017-09-21T12:53:22.536Z,7.10
2017-09-21T12:55:51.171Z,5.50
2017-09-21T12:58:19.383Z,5.97
2017-09-21T13:00:47.536Z,5.60
2017-09-21T13:03:15.735Z,4.85
2017-09-21T13:05:43.927Z,5.00
2017-09-21T13:08:12.058Z,7.87
2017-09-21T13:10:40.341Z,4.60
2017-09-21T13:13:08.906Z,4.45
2017-09-21T13:15:38.172Z,4.30
2017-09-21T13:18:07.439Z,4.47
2017-09-21T13:20:35.734Z,5.10
2017-09-21T13:23:04.872Z,5.05
2017-09-21T13:28:07.420Z,5.10
2017-09-21T13:30:35.597Z,4.60
2017-09-21T13:33:04.698Z,5.12
2017-09-21T13:35:34.416Z,4.95
2017-09-21T13:38:02.592Z,4.97
2017-09-21T13:40:31.749Z,5.00
2017-09-21T13:42:59.933Z,5.97
2017-09-21T13:45:28.966Z,6.47
2017-09-21T13:47:57.341Z,6.57
2017-09-21T13:50:26.312Z,5.10
2017-09-21T13:52:57.245Z,5.78
2017-09-21T13:55:26.213Z,6.40
2017-09-21T13:57:56.602Z,5.50
2017-09-21T14:00:27.133Z,5.15
2017-09-21T14:02:58.069Z,5.57
2017-09-21T14:05:30.039Z,6.10
2017-09-21T14:08:00.378Z,5.57
2017-09-21T14:10:30.096Z,5.82
2017-09-21T14:13:00.580Z,4.60
2017-09-21T14:15:32.284Z,5.25
2017-09-21T14:18:01.357Z,5.53
2017-09-21T14:20:31.797Z,5.43
2017-09-21T14:23:02.824Z,4.50
2017-09-21T14:25:34.384Z,5.68
2017-09-21T14:28:05.213Z,5.05
2017-09-21T14:30:34.344Z,4.97
2017-09-21T14:33:04.840Z,4.78
2017-09-21T14:35:35.358Z,5.62
2017-09-21T14:38:06.196Z,5.62
2017-09-21T14:40:36.909Z,4.85
2017-09-21T14:43:07.596Z,5.32
2017-09-21T14:45:36.460Z,5.12
2017-09-21T14:48:05.386Z,5.28
2017-09-21T14:50:34.995Z,4.55
2017-09-21T14:53:04.275Z,4.07
2017-09-21T14:55:33.582Z,4.35
2017-09-21T14:58:03.042Z,4.57
2017-09-21T15:00:32.466Z,4.30
2017-09-21T15:03:01.847Z,4.50
2017-09-21T15:05:32.039Z,4.70
2017-09-21T15:08:02.605Z,4.05
2017-09-21T15:10:33.584Z,3.87
2017-09-21T15:13:03.513Z,5.70
2017-09-21T15:15:35.197Z,5.47
2017-09-21T15:18:04.803Z,4.85
2017-09-21T15:20:35.449Z,5.10
2017-09-21T15:23:06.514Z,4.75
2017-09-21T15:25:37.581Z,4.45
2017-09-21T15:28:09.057Z,4.00
2017-09-21T15:30:39.526Z,4.15
2017-09-21T15:33:10.059Z,3.83
2017-09-21T15:35:39.970Z,5.80
2017-09-21T15:38:11.060Z,4.18
2017-09-21T15:40:42.161Z,4.30
2017-09-21T15:43:10.680Z,4.12
2017-09-21T15:45:39.993Z,4.30
2017-09-21T15:48:08.192Z,4.20
2017-09-21T15:50:39.050Z,3.87
2017-09-21T15:53:08.622Z,3.50
2017-09-21T15:55:39.596Z,4.03
2017-09-21T15:58:09.305Z,3.80
2017-09-21T16:00:38.147Z,4.10
2017-09-21T16:03:08.953Z,4.32
2017-09-21T16:05:41.013Z,3.62
2017-09-21T16:08:12.314Z,3.83
2017-09-21T16:10:43.334Z,3.95
2017-09-21T16:13:16.421Z,3.55
2017-09-21T16:15:47.943Z,3.75
2017-09-21T16:18:18.956Z,3.97
2017-09-21T16:20:50.126Z,3.30
2017-09-21T16:23:21.525Z,4.65
2017-09-21T16:25:54.288Z,6.90
2017-09-21T16:28:24.938Z,3.97
2017-09-21T16:31:01.526Z,3.90
2017-09-21T16:33:38.817Z,3.80
2017-09-21T16:36:10.101Z,4.30
2017-09-21T16:38:41.461Z,4.10
2017-09-21T16:41:12.472Z,4.18
2017-09-21T16:43:44.721Z,4.20
2017-09-21T16:46:18.749Z,3.53
2017-09-21T16:48:47.921Z,4.15
2017-09-21T16:51:20.723Z,4.10
2017-09-21T16:53:51.799Z,3.62
2017-09-21T16:56:26.004Z,3.83
2017-09-21T16:58:57.064Z,3.35
2017-09-21T17:01:29.634Z,3.30
2017-09-21T17:04:01.495Z,3.58
2017-09-21T17:06:32.137Z,3.85
2017-09-21T17:09:01.901Z,3.58
2017-09-21T17:11:34.173Z,3.90
2017-09-21T17:14:06.245Z,2.95
2017-09-21T17:16:37.181Z,3.12
2017-09-21T17:19:09.932Z,3.97
2017-09-21T17:21:42.638Z,4.65
2017-09-21T17:24:14.979Z,4.40
2017-09-21T17:26:46.172Z,4.07
2017-09-21T17:29:18.220Z,4.28
2017-09-21T17:31:51.569Z,6.43
2017-09-21T17:34:23.197Z,7.00
2017-09-21T17:36:54.054Z,9.07
2017-09-21T17:39:27.467Z,6.43
2017-09-21T17:42:00.290Z,6.35
2017-09-21T17:44:32.012Z,6.43
2017-09-21T17:47:04.175Z,5.10
2017-09-21T17:49:36.077Z,7.32
2017-09-21T17:52:07.774Z,6.05
2017-09-21T17:54:41.149Z,6.00
2017-09-21T17:57:14.921Z,5.60
2017-09-21T17:59:46.669Z,6.05
2017-09-21T18:02:18.060Z,5.45
2017-09-21T18:04:51.261Z,5.65
2017-09-21T18:07:22.988Z,6.43
2017-09-21T18:09:55.766Z,5.55
2017-09-21T18:12:27.081Z,4.70
2017-09-21T18:14:58.573Z,5.37
2017-09-21T18:17:31.891Z,5.55
2017-09-21T18:20:03.004Z,5.68
2017-09-21T18:22:35.133Z,7.32
2017-09-21T18:30:29.922Z,7.30
2017-09-21T18:33:03.250Z,7.93
2017-09-21T18:35:35.935Z,6.90
2017-09-21T18:38:06.227Z,7.32
2017-09-21T18:40:39.266Z,8.38
2017-09-21T18:43:11.770Z,6.35
2017-09-21T18:45:43.155Z,6.78
2017-09-21T18:48:17.414Z,6.30
2017-09-21T18:50:48.057Z,6.37
2017-09-21T18:53:21.970Z,6.80
2017-09-21T18:55:55.191Z,6.97
2017-09-21T18:58:28.498Z,6.30
2017-09-21T19:01:00.435Z,6.47
2017-09-21T19:03:32.365Z,6.00
2017-09-21T19:06:03.237Z,7.03
2017-09-21T19:08:35.664Z,6.20
2017-09-21T19:11:07.138Z,7.90
2017-09-21T19:13:39.062Z,6.05
2017-09-21T19:16:11.642Z,6.32
2017-09-21T19:18:43.099Z,6.15
2017-09-21T19:21:15.704Z,6.53
2017-09-21T19:23:47.156Z,6.60
2017-09-21T19:26:18.548Z,7.10
2017-09-21T19:28:52.041Z,6.30
2017-09-21T19:31:24.097Z,6.25
2017-09-21T19:33:56.157Z,6.35
2017-09-21T19:36:27.768Z,6.62
2017-09-21T19:39:01.815Z,8.73
2017-09-21T19:41:33.117Z,7.15
2017-09-21T19:44:05.001Z,8.02
2017-09-21T19:46:36.973Z,7.35
2017-09-21T19:49:08.973Z,7.30
2017-09-21T19:51:39.988Z,8.02
2017-09-21T19:54:10.629Z,8.63
2017-09-21T19:59:25.319Z,8.35
2017-09-21T20:01:57.544Z,7.40
2017-09-21T20:04:29.048Z,7.85
2017-09-21T20:07:00.421Z,9.07
2017-09-21T20:09:31.385Z,8.20
2017-09-21T20:12:00.905Z,8.10
2017-09-21T20:14:32.151Z,8.50
2017-09-21T20:17:04.213Z,9.82
2017-09-21T20:19:35.353Z,9.80
2017-09-21T20:22:06.676Z,9.50
2017-09-21T20:27:14.209Z,10.88
2017-09-21T20:29:45.214Z,9.00
2017-09-21T20:32:18.347Z,9.02
2017-09-21T20:34:49.566Z,9.35
2017-09-21T20:37:20.722Z,9.80
2017-09-21T20:39:52.130Z,10.20
2017-09-21T20:42:21.972Z,10.50
2017-09-21T20:44:54.612Z,9.48
2017-09-21T20:47:24.166Z,11.40
2017-09-21T20:49:54.318Z,10.43
2017-09-21T20:52:26.390Z,13.43
2017-09-21T20:54:57.753Z,10.13
2017-09-21T20:57:28.925Z,10.02
2017-09-21T21:00:00.129Z,10.57
2017-09-21T21:02:32.269Z,10.30
2017-09-21T21:05:04.558Z,10.75
2017-09-21T21:07:35.926Z,12.02
2017-09-21T21:10:07.638Z,10.38
2017-09-21T21:12:39.312Z,11.32
2017-09-21T21:15:10.278Z,12.23
2017-09-21T21:17:40.593Z,9.55
2017-09-21T21:20:10.985Z,10.63
2017-09-21T21:22:41.199Z,11.20
2017-09-21T21:25:13.731Z,11.15
2017-09-21T21:27:45.563Z,10.57
2017-09-21T21:30:18.109Z,10.10
2017-09-21T21:32:49.975Z,11.10
2017-09-21T21:35:20.522Z,10.68
2017-09-21T21:37:50.729Z,12.70
2017-09-21T21:40:21.083Z,11.80
2017-09-21T21:42:52.625Z,12.55
2017-09-21T21:45:24.472Z,10.60
2017-09-21T21:47:55.668Z,12.20
2017-09-21T21:50:27.458Z,11.18
2017-09-21T21:52:58.277Z,12.13
2017-09-21T21:55:29.639Z,11.23
2017-09-21T21:58:00.111Z,11.23
2017-09-21T22:00:32.492Z,10.63
2017-09-21T22:03:04.442Z,11.50
2017-09-21T22:05:35.835Z,12.07
2017-09-21T22:08:06.792Z,12.45
2017-09-21T22:10:38.349Z,11.35
2017-09-21T22:13:09.265Z,11.32
2017-09-21T22:15:40.262Z,11.43
2017-09-21T22:18:11.552Z,10.93
2017-09-21T22:20:43.892Z,10.98
2017-09-21T22:23:14.986Z,10.77
2017-09-21T22:25:45.780Z,11.52
2017-09-21T22:28:15.557Z,12.98
2017-09-21T22:30:45.358Z,12.88
2017-09-21T22:33:17.337Z,11.85
2017-09-21T22:35:48.829Z,13.00
2017-09-21T22:38:20.577Z,12.32
2017-09-21T22:40:52.088Z,12.40
2017-09-21T22:43:22.458Z,12.00
2017-09-21T22:45:53.685Z,13.35
2017-09-21T22:48:25.005Z,12.02
2017-09-21T22:50:57.643Z,12.50
2017-09-21T22:53:28.404Z,12.30
2017-09-21T22:56:00.262Z,11.82
2017-09-21T22:58:31.369Z,13.62
2017-09-21T23:01:02.489Z,13.20
2017-09-21T23:03:35.900Z,11.55
2017-09-21T23:06:07.096Z,15.18
2017-09-21T23:08:38.166Z,14.65
2017-09-21T23:11:08.132Z,13.13
2017-09-21T23:13:39.911Z,12.30
2017-09-21T23:16:10.792Z,13.02
2017-09-21T23:18:42.042Z,12.95
2017-09-21T23:21:14.677Z,12.45
2017-09-21T23:23:45.878Z,11.60
2017-09-21T23:26:18.143Z,12.60
2017-09-21T23:28:48.913Z,11.82
2017-09-21T23:31:20.677Z,11.35
2017-09-21T23:33:51.745Z,12.45
2017-09-21T23:36:23.890Z,11.98
2017-09-21T23:38:54.421Z,11.98
2017-09-21T23:41:26.197Z,12.80
2017-09-21T23:43:56.717Z,11.65
2017-09-21T23:46:28.518Z,13.15
2017-09-21T23:49:00.463Z,11.70
2017-09-21T23:51:30.052Z,10.93
2017-09-21T23:54:02.436Z,11.40
2017-09-21T23:56:35.257Z,11.85
2017-09-21T23:59:05.973Z,14.95
